createdAt,value
2022-10-26T00:01:24.843Z,11.80
2022-10-26T00:03:53.558Z,11.80
2022-10-26T00:06:25.337Z,11.80
2022-10-26T00:08:55.647Z,11.80
2022-10-26T00:11:24.761Z,11.80
2022-10-26T00:13:53.260Z,11.80
2022-10-26T00:16:24.553Z,11.80
2022-10-26T00:18:52.941Z,11.80
2022-10-26T00:21:21.425Z,11.80
2022-10-26T00:23:49.720Z,11.90
2022-10-26T00:26:19.546Z,11.90
2022-10-26T00:28:48.862Z,11.90
2022-10-26T00:31:17.765Z,11.90
2022-10-26T00:33:46.727Z,11.90
2022-10-26T00:36:16.751Z,11.90
2022-10-26T00:38:49.941Z,11.90
2022-10-26T00:41:21.652Z,11.90
2022-10-26T00:43:50.722Z,12.00
2022-10-26T00:46:22.886Z,12.00
2022-10-26T00:48:54.949Z,11.90
2022-10-26T00:51:32.539Z,12.00
2022-10-26T00:54:04.983Z,11.90
2022-10-26T00:56:35.836Z,11.90
2022-10-26T00:59:08.101Z,11.90
2022-10-26T01:01:39.728Z,11.90
2022-10-26T01:04:08.176Z,11.90
2022-10-26T01:06:38.771Z,11.90
2022-10-26T01:09:08.113Z,11.90
2022-10-26T01:11:37.710Z,11.90
2022-10-26T01:14:10.488Z,11.90
2022-10-26T01:16:58.863Z,11.90
2022-10-26T01:20:07.786Z,11.90
2022-10-26T01:22:41.074Z,11.90
2022-10-26T01:25:27.492Z,11.90
2022-10-26T01:27:58.225Z,11.80
2022-10-26T01:30:45.484Z,11.80
2022-10-26T01:33:34.781Z,11.80
2022-10-26T01:36:12.872Z,11.80
2022-10-26T01:38:53.919Z,11.80
2022-10-26T01:41:27.828Z,11.90
2022-10-26T01:44:00.408Z,11.90
2022-10-26T01:46:43.570Z,11.90
2022-10-26T01:49:14.615Z,11.90
2022-10-26T01:51:44.800Z,11.90
2022-10-26T01:54:13.086Z,11.90
2022-10-26T01:56:44.036Z,11.90
2022-10-26T02:00:02.592Z,11.90
2022-10-26T02:03:09.900Z,12.00
2022-10-26T02:05:58.822Z,12.00
2022-10-26T02:08:47.358Z,12.00
2022-10-26T02:11:25.591Z,12.00
2022-10-26T02:13:59.014Z,12.00
2022-10-26T02:16:33.238Z,12.00
2022-10-26T02:19:08.726Z,12.00
2022-10-26T02:21:40.786Z,12.00
2022-10-26T02:24:12.469Z,12.00
2022-10-26T02:26:42.997Z,12.10
2022-10-26T02:29:17.779Z,12.10
2022-10-26T02:31:49.115Z,12.20
2022-10-26T02:34:25.430Z,12.20
2022-10-26T02:36:57.014Z,12.20
2022-10-26T02:39:27.123Z,12.20
2022-10-26T02:41:57.957Z,12.20
2022-10-26T02:44:30.454Z,12.20
2022-10-26T02:46:59.463Z,12.20
2022-10-26T02:49:29.642Z,12.30
2022-10-26T02:52:05.910Z,12.30
2022-10-26T02:54:45.625Z,12.30
2022-10-26T02:57:18.791Z,12.30
2022-10-26T02:59:48.586Z,12.30
2022-10-26T03:02:18.904Z,12.30
2022-10-26T03:04:50.883Z,12.30
2022-10-26T03:07:23.380Z,12.40
2022-10-26T03:09:51.763Z,12.40
2022-10-26T03:12:20.078Z,12.40
2022-10-26T03:14:48.279Z,12.40
2022-10-26T03:17:16.441Z,12.50
2022-10-26T03:19:44.706Z,12.50
2022-10-26T03:22:14.313Z,12.50
2022-10-26T03:24:42.535Z,12.50
2022-10-26T03:27:10.735Z,12.50
2022-10-26T03:29:39.008Z,12.50
2022-10-26T03:32:07.576Z,12.50
2022-10-26T03:34:35.850Z,12.50
2022-10-26T03:37:04.022Z,12.50
2022-10-26T03:39:33.628Z,12.50
2022-10-26T03:42:01.874Z,12.60
2022-10-26T03:44:30.063Z,12.50
2022-10-26T03:46:58.359Z,12.60
2022-10-26T03:49:26.589Z,12.60
2022-10-26T03:51:54.823Z,12.60
2022-10-26T03:54:23.073Z,12.60
2022-10-26T03:56:55.116Z,12.60
2022-10-26T03:59:23.644Z,12.60
2022-10-26T04:01:55.340Z,12.60
2022-10-26T04:04:26.392Z,12.70
2022-10-26T04:06:54.686Z,12.70
2022-10-26T04:09:22.919Z,12.70
2022-10-26T04:11:52.558Z,12.70
2022-10-26T04:14:20.861Z,12.70
2022-10-26T04:16:49.133Z,12.70
2022-10-26T04:19:17.373Z,12.70
2022-10-26T04:21:45.688Z,12.70
2022-10-26T04:24:14.256Z,12.70
2022-10-26T04:26:42.438Z,12.70
2022-10-26T04:29:13.756Z,12.70
2022-10-26T04:34:13.011Z,12.70
2022-10-26T04:36:41.367Z,12.70
2022-10-26T04:39:09.624Z,12.70
2022-10-26T04:41:37.885Z,12.70
2022-10-26T04:44:06.322Z,12.60
2022-10-26T04:46:35.901Z,12.70
2022-10-26T04:49:04.161Z,12.70
2022-10-26T04:51:32.380Z,12.70
2022-10-26T04:54:00.584Z,12.70
2022-10-26T04:56:28.845Z,12.60
2022-10-26T04:58:57.326Z,12.70
2022-10-26T05:01:25.992Z,12.70
2022-10-26T05:03:56.050Z,12.70
2022-10-26T05:06:24.685Z,12.70
2022-10-26T05:08:53.031Z,12.70
2022-10-26T05:11:21.317Z,12.80
2022-10-26T05:13:49.599Z,12.80
2022-10-26T05:16:17.833Z,12.80
2022-10-26T05:18:49.424Z,12.80
2022-10-26T05:21:20.310Z,12.80
2022-10-26T05:23:52.558Z,12.80
2022-10-26T05:26:21.050Z,12.90
2022-10-26T05:28:49.800Z,12.90
2022-10-26T05:31:18.015Z,12.90
2022-10-26T05:33:46.244Z,12.90
2022-10-26T05:36:14.485Z,12.90
2022-10-26T05:38:44.438Z,12.90
2022-10-26T05:41:12.923Z,12.90
2022-10-26T05:43:41.187Z,12.90
2022-10-26T05:46:09.443Z,13.00
2022-10-26T05:48:37.703Z,12.90
2022-10-26T05:51:06.392Z,13.00
2022-10-26T05:53:34.593Z,13.00
2022-10-26T05:56:07.313Z,13.00
2022-10-26T05:58:39.301Z,13.00
2022-10-26T06:01:20.511Z,13.00
2022-10-26T06:04:07.093Z,13.00
2022-10-26T06:06:41.560Z,13.00
2022-10-26T06:09:12.483Z,13.00
2022-10-26T06:11:43.072Z,13.00
2022-10-26T06:14:11.983Z,13.00
2022-10-26T06:17:03.377Z,13.00
2022-10-26T06:19:50.652Z,13.00
2022-10-26T06:22:36.126Z,13.00
2022-10-26T06:25:16.572Z,13.00
2022-10-26T06:27:55.637Z,13.10
2022-10-26T06:30:24.473Z,13.10
2022-10-26T06:33:05.614Z,13.10
2022-10-26T06:35:54.086Z,13.10
2022-10-26T06:38:24.792Z,13.20
2022-10-26T06:40:57.186Z,13.20
2022-10-26T06:43:29.092Z,13.20
2022-10-26T06:46:08.888Z,13.20
2022-10-26T06:48:50.261Z,13.20
2022-10-26T06:51:19.725Z,13.20
2022-10-26T06:53:56.854Z,13.30
2022-10-26T06:56:25.659Z,13.30
2022-10-26T06:58:57.544Z,13.30
2022-10-26T07:01:25.912Z,13.40
2022-10-26T07:03:57.014Z,13.50
2022-10-26T07:06:25.338Z,13.50
2022-10-26T07:08:53.668Z,13.70
2022-10-26T07:11:22.052Z,13.70
2022-10-26T07:13:51.902Z,13.80
2022-10-26T07:16:23.215Z,13.80
2022-10-26T07:18:51.458Z,13.90
2022-10-26T07:21:19.710Z,14.00
2022-10-26T07:23:47.993Z,14.00
2022-10-26T07:26:16.173Z,14.00
2022-10-26T07:28:44.428Z,14.10
2022-10-26T07:31:12.672Z,14.10
2022-10-26T07:33:42.940Z,14.20
2022-10-26T07:36:11.815Z,14.20
2022-10-26T07:38:40.352Z,14.20
2022-10-26T07:41:08.639Z,14.20
2022-10-26T07:43:36.871Z,14.20
2022-10-26T07:46:05.215Z,14.30
2022-10-26T07:48:33.528Z,14.40
2022-10-26T07:51:04.023Z,14.50
2022-10-26T07:53:32.331Z,14.50
2022-10-26T07:56:00.609Z,14.60
2022-10-26T07:58:28.901Z,14.60
2022-10-26T08:00:57.436Z,14.60
2022-10-26T08:03:25.766Z,14.60
2022-10-26T08:05:56.252Z,14.60
2022-10-26T08:08:25.994Z,14.70
2022-10-26T08:10:54.559Z,14.70
2022-10-26T08:13:22.752Z,14.90
2022-10-26T08:15:51.056Z,15.00
2022-10-26T08:18:19.266Z,15.20
2022-10-26T08:20:47.514Z,15.30
2022-10-26T08:23:15.784Z,15.50
2022-10-26T08:25:45.421Z,15.60
2022-10-26T08:28:13.787Z,15.80
2022-10-26T08:30:42.062Z,15.90
2022-10-26T08:33:12.391Z,16.00
2022-10-26T08:35:40.599Z,16.10
2022-10-26T08:38:08.870Z,16.10
2022-10-26T08:40:40.830Z,16.20
2022-10-26T08:43:18.251Z,16.40
2022-10-26T08:45:52.708Z,16.60
2022-10-26T08:48:26.721Z,16.80
2022-10-26T08:50:58.530Z,17.00
2022-10-26T08:53:35.472Z,17.20
2022-10-26T08:56:12.013Z,17.30
2022-10-26T08:58:47.815Z,17.40
2022-10-26T09:01:16.174Z,17.60
2022-10-26T09:03:44.432Z,17.80
2022-10-26T09:06:27.184Z,17.90
2022-10-26T09:09:05.246Z,17.90
2022-10-26T09:11:50.517Z,18.10
2022-10-26T09:14:29.558Z,18.20
2022-10-26T09:17:08.374Z,18.30
2022-10-26T09:20:00.321Z,18.30
2022-10-26T09:22:41.278Z,18.40
2022-10-26T09:25:19.996Z,18.50
2022-10-26T09:27:52.432Z,18.60
2022-10-26T09:30:23.540Z,18.80
2022-10-26T09:32:53.839Z,18.90
2022-10-26T09:35:26.617Z,18.90
2022-10-26T09:37:59.593Z,19.00
2022-10-26T09:40:34.297Z,19.00
2022-10-26T09:43:08.525Z,19.10
2022-10-26T09:45:42.883Z,19.20
2022-10-26T09:48:17.815Z,19.20
2022-10-26T09:50:49.969Z,19.30
2022-10-26T09:53:18.244Z,19.30
2022-10-26T09:55:50.196Z,19.40
2022-10-26T09:58:22.940Z,19.30
2022-10-26T10:00:53.478Z,19.40
2022-10-26T10:03:26.869Z,19.30
2022-10-26T10:05:56.149Z,19.30
2022-10-26T10:08:27.508Z,19.50
2022-10-26T10:11:01.978Z,19.80
2022-10-26T10:13:32.926Z,19.80
2022-10-26T10:16:06.799Z,19.90
2022-10-26T10:18:36.510Z,19.90
2022-10-26T10:21:05.972Z,19.80
2022-10-26T10:23:37.158Z,19.80
2022-10-26T10:26:12.127Z,20.00
2022-10-26T10:28:43.730Z,20.00
2022-10-26T10:31:24.584Z,20.20
2022-10-26T10:33:55.607Z,20.20
2022-10-26T10:36:27.150Z,20.20
2022-10-26T10:38:55.677Z,20.20
2022-10-26T10:41:29.905Z,20.20
2022-10-26T10:44:07.396Z,20.20
2022-10-26T10:46:38.512Z,20.30
2022-10-26T10:49:17.477Z,20.30
2022-10-26T10:51:46.419Z,20.30
2022-10-26T10:54:24.451Z,20.30
2022-10-26T10:56:54.974Z,20.30
2022-10-26T10:59:56.293Z,20.30
2022-10-26T11:03:14.110Z,20.30
2022-10-26T11:06:15.206Z,20.40
2022-10-26T11:08:50.851Z,20.60
2022-10-26T11:11:24.800Z,20.80
2022-10-26T11:13:59.359Z,20.80
2022-10-26T11:16:32.412Z,20.90
2022-10-26T11:19:08.558Z,21.00
2022-10-26T11:21:38.924Z,21.00
2022-10-26T11:24:17.105Z,21.00
2022-10-26T11:26:52.728Z,21.20
2022-10-26T11:29:40.315Z,21.30
2022-10-26T11:32:18.143Z,21.30
2022-10-26T11:34:54.608Z,21.20
2022-10-26T11:37:30.179Z,21.20
2022-10-26T11:40:21.913Z,21.20
2022-10-26T11:42:56.728Z,21.20
2022-10-26T11:45:29.442Z,21.10
2022-10-26T11:48:05.565Z,21.10
2022-10-26T11:50:41.432Z,21.00
2022-10-26T11:53:16.141Z,21.00
2022-10-26T11:55:49.098Z,21.10
2022-10-26T11:58:18.464Z,21.00
2022-10-26T12:00:53.679Z,21.00
2022-10-26T12:03:27.908Z,21.00
2022-10-26T12:05:57.521Z,21.00
2022-10-26T12:08:29.399Z,21.00
2022-10-26T12:13:47.621Z,20.90
2022-10-26T12:16:26.105Z,20.90
2022-10-26T12:19:01.148Z,20.90
2022-10-26T12:21:32.368Z,20.80
2022-10-26T12:24:02.733Z,20.80
2022-10-26T12:26:55.848Z,20.80
2022-10-26T12:29:38.161Z,20.80
2022-10-26T12:32:52.634Z,20.80
2022-10-26T12:35:42.915Z,20.80
2022-10-26T12:38:57.683Z,20.80
2022-10-26T12:41:28.048Z,20.80
2022-10-26T12:43:58.712Z,20.80
2022-10-26T12:46:43.054Z,20.70
2022-10-26T12:50:04.914Z,20.70
2022-10-26T12:52:58.029Z,20.70
2022-10-26T12:55:56.571Z,20.70
2022-10-26T12:59:05.040Z,20.60
2022-10-26T13:02:05.049Z,20.50
2022-10-26T13:05:08.197Z,20.40
2022-10-26T13:07:38.803Z,20.50
2022-10-26T13:10:20.205Z,20.40
2022-10-26T13:12:53.536Z,20.40
2022-10-26T13:15:28.770Z,20.40
2022-10-26T13:18:03.330Z,20.50
2022-10-26T13:20:33.420Z,20.50
2022-10-26T13:25:35.839Z,20.50
2022-10-26T13:28:08.530Z,20.50
2022-10-26T13:30:46.804Z,20.40
2022-10-26T13:33:38.693Z,20.40
2022-10-26T13:36:18.557Z,20.40
2022-10-26T13:38:48.831Z,20.40
2022-10-26T13:41:29.403Z,20.40
2022-10-26T13:44:00.332Z,20.40
2022-10-26T13:46:29.963Z,20.30
2022-10-26T13:49:09.052Z,20.40
2022-10-26T13:51:44.773Z,20.40
2022-10-26T13:54:24.087Z,20.30
2022-10-26T13:57:14.846Z,20.30
2022-10-26T13:59:46.976Z,20.30
2022-10-26T14:02:24.180Z,20.30
2022-10-26T14:05:03.888Z,20.30
2022-10-26T14:07:38.176Z,20.30
2022-10-26T14:10:08.028Z,20.30
2022-10-26T14:12:36.339Z,20.30
2022-10-26T14:15:10.097Z,20.30
2022-10-26T14:17:38.393Z,20.20
2022-10-26T14:20:07.986Z,20.20
2022-10-26T14:22:36.261Z,20.20
2022-10-26T14:25:04.733Z,20.20
2022-10-26T14:27:40.303Z,20.10
2022-10-26T14:30:24.069Z,20.10
2022-10-26T14:32:53.412Z,20.10
2022-10-26T14:35:26.935Z,20.10
2022-10-26T14:38:00.097Z,20.00
2022-10-26T14:40:31.800Z,20.00
2022-10-26T14:43:01.626Z,19.90
2022-10-26T14:45:50.241Z,19.90
2022-10-26T14:48:25.565Z,19.90
2022-10-26T14:51:06.877Z,19.80
2022-10-26T14:53:39.248Z,19.80
2022-10-26T14:56:23.217Z,19.80
2022-10-26T14:58:52.525Z,19.70
2022-10-26T15:01:36.005Z,19.70
2022-10-26T15:04:08.154Z,19.70
2022-10-26T15:06:43.488Z,19.60
2022-10-26T15:09:40.133Z,19.60
2022-10-26T15:12:09.543Z,19.50
2022-10-26T15:14:38.149Z,19.50
2022-10-26T15:17:07.769Z,19.50
2022-10-26T15:19:37.137Z,19.40
2022-10-26T15:22:05.402Z,19.40
2022-10-26T15:24:39.056Z,19.30
2022-10-26T15:27:16.325Z,19.30
2022-10-26T15:29:46.348Z,19.30
2022-10-26T15:32:33.529Z,19.30
2022-10-26T15:35:32.489Z,19.20
2022-10-26T15:38:02.106Z,19.10
2022-10-26T15:40:33.166Z,19.10
2022-10-26T15:43:02.726Z,19.00
2022-10-26T15:45:37.733Z,18.90
2022-10-26T15:48:24.294Z,18.90
2022-10-26T15:50:52.563Z,18.80
2022-10-26T15:53:27.437Z,18.80
2022-10-26T15:55:59.322Z,18.70
2022-10-26T15:58:32.268Z,18.60
2022-10-26T16:01:00.558Z,18.60
2022-10-26T16:03:30.718Z,18.50
2022-10-26T16:06:00.841Z,18.50
2022-10-26T16:08:31.503Z,18.50
2022-10-26T16:11:00.584Z,18.30
2022-10-26T16:13:28.866Z,18.30
2022-10-26T16:15:57.124Z,18.20
2022-10-26T16:18:25.463Z,18.20
2022-10-26T16:20:55.117Z,18.10
2022-10-26T16:23:23.394Z,18.10
2022-10-26T16:25:51.736Z,18.00
2022-10-26T16:28:19.975Z,18.00
2022-10-26T16:30:48.264Z,18.00
2022-10-26T16:33:16.762Z,17.90
2022-10-26T16:35:45.012Z,17.80
2022-10-26T16:38:14.570Z,17.80
2022-10-26T16:40:45.088Z,17.80
2022-10-26T16:43:13.376Z,17.70
2022-10-26T16:45:42.662Z,17.70
2022-10-26T16:48:15.186Z,17.70
2022-10-26T16:50:43.488Z,17.60
2022-10-26T16:53:11.753Z,17.50
2022-10-26T16:55:44.197Z,17.40
2022-10-26T16:58:36.778Z,17.30
2022-10-26T17:01:07.161Z,17.30
2022-10-26T17:03:36.215Z,17.30
2022-10-26T17:06:06.592Z,17.30
2022-10-26T17:08:37.273Z,17.20
2022-10-26T17:11:09.449Z,17.10
2022-10-26T17:13:38.501Z,17.00
2022-10-26T17:16:09.509Z,17.00
2022-10-26T17:18:37.554Z,16.90
2022-10-26T17:21:06.138Z,16.80
2022-10-26T17:23:34.427Z,16.80
2022-10-26T17:26:03.796Z,16.70
2022-10-26T17:28:33.828Z,16.70
2022-10-26T17:31:07.126Z,16.50
2022-10-26T17:33:36.957Z,16.50
2022-10-26T17:36:08.037Z,16.40
2022-10-26T17:38:38.932Z,16.30
2022-10-26T17:41:10.229Z,16.30
2022-10-26T17:43:41.840Z,16.20
2022-10-26T17:46:12.614Z,16.20
2022-10-26T17:48:40.997Z,16.10
2022-10-26T17:51:13.256Z,15.90
2022-10-26T17:53:41.648Z,15.70
2022-10-26T17:56:12.812Z,15.80
2022-10-26T17:58:42.486Z,15.70
2022-10-26T18:01:13.416Z,15.80
2022-10-26T18:03:42.472Z,15.90
2022-10-26T18:06:11.723Z,15.90
2022-10-26T18:08:41.043Z,16.00
2022-10-26T18:11:15.104Z,16.00
2022-10-26T18:13:44.952Z,16.10
2022-10-26T18:16:15.433Z,16.20
2022-10-26T18:18:50.131Z,16.20
2022-10-26T18:21:21.141Z,16.20
2022-10-26T18:23:49.193Z,16.20
2022-10-26T18:26:20.008Z,16.30
2022-10-26T18:28:49.672Z,16.30
2022-10-26T18:31:19.904Z,16.20
2022-10-26T18:33:48.882Z,16.20
2022-10-26T18:36:19.359Z,16.20
2022-10-26T18:38:48.858Z,16.10
2022-10-26T18:41:19.605Z,16.00
2022-10-26T18:43:51.155Z,16.00
2022-10-26T18:46:23.592Z,16.10
2022-10-26T18:48:52.264Z,16.00
2022-10-26T18:51:23.025Z,16.10
2022-10-26T18:53:51.263Z,16.00
2022-10-26T18:56:23.043Z,16.00
2022-10-26T18:58:55.466Z,16.00
2022-10-26T19:01:26.910Z,16.00
2022-10-26T19:03:57.116Z,16.00
2022-10-26T19:06:27.528Z,15.90
2022-10-26T19:08:56.315Z,15.90
2022-10-26T19:11:26.964Z,15.90
2022-10-26T19:13:56.780Z,15.90
2022-10-26T19:16:44.727Z,16.00
2022-10-26T19:19:14.770Z,16.00
2022-10-26T19:21:42.982Z,15.90
2022-10-26T19:24:15.227Z,15.80
2022-10-26T19:26:44.461Z,15.80
2022-10-26T19:29:16.980Z,15.80
2022-10-26T19:31:46.801Z,15.80
2022-10-26T19:34:16.507Z,15.70
2022-10-26T19:36:46.441Z,15.70
2022-10-26T19:39:15.870Z,15.70
2022-10-26T19:41:44.932Z,15.70
2022-10-26T19:44:15.818Z,15.70
2022-10-26T19:46:45.156Z,15.70
2022-10-26T19:49:13.712Z,15.70
2022-10-26T19:51:42.008Z,15.70
2022-10-26T19:54:10.380Z,15.60
2022-10-26T19:56:38.996Z,15.60
2022-10-26T19:59:08.183Z,15.60
2022-10-26T20:01:38.254Z,15.60
2022-10-26T20:04:06.988Z,15.60
2022-10-26T20:06:35.271Z,15.70
2022-10-26T20:09:03.876Z,15.70
2022-10-26T20:11:35.123Z,15.70
2022-10-26T20:14:03.404Z,15.70
2022-10-26T20:16:31.713Z,15.70
2022-10-26T20:19:03.352Z,15.60
2022-10-26T20:21:32.099Z,15.60
2022-10-26T20:24:00.408Z,15.50
2022-10-26T20:26:28.840Z,15.50
2022-10-26T20:28:57.173Z,15.40
2022-10-26T20:31:25.504Z,15.30
2022-10-26T20:33:54.392Z,15.20
2022-10-26T20:36:24.251Z,15.20
2022-10-26T20:38:53.541Z,15.30
2022-10-26T20:41:22.674Z,15.20
2022-10-26T20:43:54.386Z,15.20
2022-10-26T20:46:28.281Z,15.10
2022-10-26T20:48:57.366Z,15.10
2022-10-26T20:51:44.538Z,15.20
2022-10-26T20:54:27.443Z,15.10
2022-10-26T20:56:58.806Z,15.10
2022-10-26T21:02:10.167Z,15.10
2022-10-26T21:04:38.499Z,15.00
2022-10-26T21:07:08.226Z,15.00
2022-10-26T21:09:36.995Z,15.00
2022-10-26T21:12:06.012Z,15.00
2022-10-26T21:14:40.618Z,15.00
2022-10-26T21:17:09.032Z,15.10
2022-10-26T21:19:37.967Z,15.10
2022-10-26T21:22:07.589Z,15.00
2022-10-26T21:24:39.436Z,15.00
2022-10-26T21:27:07.675Z,15.00
2022-10-26T21:29:35.912Z,15.00
2022-10-26T21:32:04.361Z,14.90
2022-10-26T21:34:32.630Z,14.90
2022-10-26T21:37:00.882Z,14.90
2022-10-26T21:39:30.908Z,14.90
2022-10-26T21:41:59.210Z,15.00
2022-10-26T21:44:42.780Z,15.10
2022-10-26T21:47:12.646Z,15.10
2022-10-26T21:52:14.401Z,15.10
2022-10-26T21:54:44.045Z,15.10
2022-10-26T21:57:12.750Z,15.10
2022-10-26T21:59:41.018Z,15.10
2022-10-26T22:02:09.430Z,15.10
2022-10-26T22:04:38.650Z,15.10
2022-10-26T22:07:06.913Z,15.10
2022-10-26T22:09:40.768Z,15.20
2022-10-26T22:12:19.286Z,15.10
2022-10-26T22:14:47.474Z,15.10
2022-10-26T22:17:15.705Z,15.20
2022-10-26T22:19:43.911Z,15.20
2022-10-26T22:22:12.138Z,15.20
2022-10-26T22:24:41.226Z,15.30
2022-10-26T22:27:09.506Z,15.20
2022-10-26T22:29:39.224Z,15.20
2022-10-26T22:32:07.492Z,15.20
2022-10-26T22:34:35.804Z,15.10
2022-10-26T22:37:04.110Z,15.10
2022-10-26T22:39:32.310Z,15.10
2022-10-26T22:42:00.590Z,15.00
2022-10-26T22:44:28.853Z,15.10
2022-10-26T22:46:59.996Z,15.10
2022-10-26T22:49:28.202Z,15.10
2022-10-26T22:51:56.476Z,15.00
2022-10-26T22:54:24.774Z,15.00
2022-10-26T22:56:53.052Z,15.00
2022-10-26T22:59:21.471Z,15.00
2022-10-26T23:01:49.898Z,15.00
2022-10-26T23:04:19.611Z,15.00
2022-10-26T23:06:47.803Z,15.10
2022-10-26T23:09:16.066Z,15.10
2022-10-26T23:11:44.300Z,15.10
2022-10-26T23:14:12.839Z,15.10
2022-10-26T23:16:41.085Z,15.10
2022-10-26T23:19:10.489Z,15.10
2022-10-26T23:21:40.128Z,15.10
2022-10-26T23:24:08.923Z,15.10
2022-10-26T23:26:37.132Z,15.10
2022-10-26T23:29:05.867Z,15.10
2022-10-26T23:31:34.119Z,15.10
2022-10-26T23:34:02.361Z,15.00
2022-10-26T23:36:30.575Z,15.00
2022-10-26T23:39:00.392Z,14.90
2022-10-26T23:41:28.982Z,14.80
2022-10-26T23:43:57.255Z,14.60
2022-10-26T23:48:58.754Z,14.20
2022-10-26T23:51:27.021Z,14.10
2022-10-26T23:53:55.636Z,14.10
2022-10-26T23:56:25.359Z,14.00
2022-10-26T23:58:53.565Z,14.00
